Time;durP1;ratioP1;P1;durP2;ratioP2;P2;SDS_P1;SDS_P2;PMS_P1;PMS_P2;Temp;Humidity;BMP_temperature;BMP_pressure;BME280_temperature;BME280_humidity;BME280_pressure;Samples;Min_cycle;Max_cycle;Signal;HPM_P1;HPM_P2
2023/04/01 00:02:45;;;;;;;5.37;0.60;;;9.40;99.90;;;;;;7290187;32;20103;-55
2023/04/01 00:06:47;;;;;;;2.22;0.60;;;9.50;99.90;;;;;;7282823;32;20257;-54
2023/04/01 00:10:50;;;;;;;6.10;1.00;;;9.50;99.90;;;;;;7280645;32;20183;-55
2023/04/01 00:14:52;;;;;;;7.43;0.75;;;9.50;99.90;;;;;;7282878;32;20177;-54
2023/04/01 00:18:54;;;;;;;3.72;0.50;;;9.60;99.90;;;;;;7277605;32;20175;-55
2023/04/01 00:22:56;;;;;;;5.20;1.00;;;9.60;99.90;;;;;;7283859;32;20146;-55
2023/04/01 00:26:57;;;;;;;3.65;0.60;;;9.60;99.90;;;;;;7280311;32;20371;-55
2023/04/01 00:31:07;;;;;;;6.47;0.68;;;9.50;99.90;;;;;;7276048;32;20254;-55
2023/04/01 00:35:10;;;;;;;1.95;0.30;;;9.50;99.90;;;;;;7282606;32;20218;-55
2023/04/01 00:39:12;;;;;;;2.90;0.57;;;9.50;99.90;;;;;;7284723;32;20530;-54
2023/04/01 00:43:20;;;;;;;3.47;0.68;;;9.50;99.90;;;;;;7279491;32;20167;-55
2023/04/01 00:47:23;;;;;;;1.23;0.30;;;9.50;99.90;;;;;;7276852;32;20122;-55
2023/04/01 00:51:28;;;;;;;2.87;0.52;;;9.40;99.90;;;;;;7280839;32;20096;-57
2023/04/01 00:55:33;;;;;;;2.75;0.30;;;9.40;99.90;;;;;;7276024;32;20173;-55
2023/04/01 00:59:47;;;;;;;4.62;0.50;;;9.40;99.90;;;;;;7284022;32;20167;-56
2023/04/01 01:03:49;;;;;;;1.42;0.32;;;9.40;99.90;;;;;;7274431;32;20123;-55
2023/04/01 01:07:57;;;;;;;1.37;0.30;;;9.40;99.90;;;;;;7281808;32;20139;-53
2023/04/01 01:12:16;;;;;;;2.47;0.40;;;9.40;99.90;;;;;;7281366;32;20518;-56
2023/04/01 01:16:44;;;;;;;2.80;0.50;;;9.40;99.90;;;;;;7278329;32;20739;-53
2023/04/01 01:21:20;;;;;;;2.90;0.55;;;9.40;99.90;;;;;;7282341;32;20130;-54
2023/04/01 01:25:53;;;;;;;2.15;0.35;;;9.40;99.90;;;;;;7274474;32;20189;-54
2023/04/01 01:30:00;;;;;;;2.20;0.55;;;9.40;99.90;;;;;;7280580;32;20154;-54
2023/04/01 01:34:04;;;;;;;;;;;9.60;99.90;;;;;;7279489;32;20108;-54
2023/04/01 01:38:11;;;;;;;1.27;0.30;;;9.50;99.90;;;;;;7276679;32;20033;-54
2023/04/01 01:42:16;;;;;;;1.20;0.30;;;9.50;99.90;;;;;;7274059;32;20177;-54
2023/04/01 01:46:22;;;;;;;2.85;0.88;;;9.50;99.90;;;;;;7276604;32;20705;-54
2023/04/01 01:50:27;;;;;;;4.25;0.40;;;9.50;99.90;;;;;;7284117;32;20203;-54
2023/04/01 01:54:28;;;;;;;1.27;0.30;;;9.50;99.90;;;;;;7291379;32;20192;-54
2023/04/01 01:58:41;;;;;;;1.62;0.22;;;9.50;99.90;;;;;;7289838;32;20293;-54
2023/04/01 02:02:45;;;;;;;2.33;0.30;;;9.50;99.90;;;;;;7275818;32;20109;-55
2023/04/01 02:07:02;;;;;;;2.45;0.40;;;9.50;99.90;;;;;;7276493;32;20120;-55
2023/04/01 02:11:07;;;;;;;2.67;0.45;;;9.40;99.90;;;;;;7273761;32;20104;-54
2023/04/01 02:15:14;;;;;;;2.65;0.40;;;9.40;99.90;;;;;;7275817;32;20298;-54
2023/04/01 02:19:22;;;;;;;2.03;0.30;;;9.40;99.90;;;;;;7279075;32;20318;-54
2023/04/01 02:23:24;;;;;;;0.90;0.30;;;9.30;99.90;;;;;;7278144;32;20132;-54
2023/04/01 02:27:26;;;;;;;2.87;0.30;;;9.20;99.90;;;;;;7286449;32;20175;-55
2023/04/01 02:31:28;;;;;;;1.12;0.40;;;9.20;99.90;;;;;;7285087;32;20248;-55
2023/04/01 02:35:32;;;;;;;1.08;0.28;;;9.20;99.90;;;;;;7277284;32;20313;-54
2023/04/01 02:39:34;;;;;;;3.08;0.40;;;9.10;99.90;;;;;;7284585;32;20441;-55
2023/04/01 02:43:36;;;;;;;1.15;0.30;;;9.10;99.90;;;;;;7283125;32;20235;-54
2023/04/01 02:47:38;;;;;;;1.60;0.50;;;9.10;99.90;;;;;;7288001;32;20801;-54
2023/04/01 02:51:40;;;;;;;1.12;0.20;;;9.10;99.90;;;;;;7272229;32;20312;-55
2023/04/01 02:55:42;;;;;;;1.20;0.40;;;9.00;99.90;;;;;;7281563;32;20176;-54
2023/04/01 02:59:43;;;;;;;1.33;0.30;;;9.10;99.90;;;;;;7283375;32;20136;-54
2023/04/01 03:03:45;;;;;;;2.47;0.40;;;9.00;99.90;;;;;;7275860;32;20129;-54
2023/04/01 03:07:47;;;;;;;2.67;0.62;;;9.00;99.90;;;;;;7279720;32;20177;-55
2023/04/01 03:11:49;;;;;;;2.42;0.77;;;9.00;99.90;;;;;;7282217;32;20454;-54
2023/04/01 03:15:50;;;;;;;3.15;0.60;;;9.00;99.90;;;;;;7284914;32;20131;-54
2023/04/01 03:19:52;;;;;;;2.60;0.75;;;9.00;99.90;;;;;;7284335;32;20872;-55
2023/04/01 03:23:54;;;;;;;1.98;0.80;;;9.00;99.90;;;;;;7279242;32;20290;-54
2023/04/01 03:27:59;;;;;;;2.40;0.90;;;9.00;99.90;;;;;;7281310;32;20146;-56
2023/04/01 03:32:00;;;;;;;2.67;0.52;;;9.10;99.90;;;;;;7283931;32;20246;-54
2023/04/01 03:36:06;;;;;;;2.17;0.47;;;9.10;99.90;;;;;;7282025;32;20473;-54
2023/04/01 03:40:09;;;;;;;2.25;0.43;;;9.00;99.90;;;;;;7274336;32;20128;-55
2023/04/01 03:44:11;;;;;;;1.00;0.22;;;9.00;99.90;;;;;;7290914;32;20136;-55
2023/04/01 03:48:16;;;;;;;3.87;0.40;;;9.00;99.90;;;;;;7276547;32;20132;-54
2023/04/01 03:52:18;;;;;;;2.67;0.60;;;9.10;99.90;;;;;;7283084;32;20250;-55
2023/04/01 03:56:20;;;;;;;1.73;0.40;;;9.10;99.90;;;;;;7274556;32;20250;-54
2023/04/01 04:00:22;;;;;;;2.85;0.47;;;9.10;99.90;;;;;;7278415;32;20349;-55
2023/04/01 04:04:24;;;;;;;1.50;0.60;;;9.10;99.90;;;;;;7281758;32;20138;-54
2023/04/01 04:08:25;;;;;;;1.75;0.60;;;9.10;99.90;;;;;;7285527;32;20123;-55
2023/04/01 04:12:27;;;;;;;1.12;0.45;;;9.10;99.90;;;;;;7278621;32;20112;-54
2023/04/01 04:16:29;;;;;;;0.82;0.55;;;9.10;99.90;;;;;;7281088;32;20113;-55
2023/04/01 04:20:31;;;;;;;1.50;0.60;;;9.10;99.90;;;;;;7284354;32;20130;-54
2023/04/01 04:24:34;;;;;;;2.50;0.60;;;9.20;99.90;;;;;;7279544;32;20108;-54
2023/04/01 04:28:36;;;;;;;1.05;0.50;;;9.10;99.90;;;;;;7274035;32;20362;-54
2023/04/01 04:32:38;;;;;;;1.25;0.50;;;9.10;99.90;;;;;;7278972;32;20131;-54
2023/04/01 04:36:40;;;;;;;2.78;0.68;;;9.10;99.90;;;;;;7267719;32;20128;-54
2023/04/01 04:40:42;;;;;;;2.78;0.50;;;9.10;99.90;;;;;;7269096;32;20180;-55
2023/04/01 04:44:44;;;;;;;1.20;0.50;;;9.20;99.90;;;;;;7281039;32;20134;-55
2023/04/01 04:48:46;;;;;;;1.08;0.60;;;9.10;99.90;;;;;;7283175;32;20168;-54
2023/04/01 04:52:48;;;;;;;1.45;0.68;;;9.20;99.90;;;;;;7286686;32;20125;-55
2023/04/01 04:56:52;;;;;;;1.65;0.73;;;9.20;99.90;;;;;;7276353;32;20644;-54
2023/04/01 05:00:54;;;;;;;1.95;0.65;;;9.20;99.90;;;;;;7280465;32;20183;-54
2023/04/01 05:04:56;;;;;;;2.05;0.90;;;9.20;99.90;;;;;;7270761;32;20164;-54
2023/04/01 05:08:57;;;;;;;2.17;0.62;;;9.20;99.90;;;;;;7274031;32;20151;-54
2023/04/01 05:12:59;;;;;;;1.40;1.00;;;9.20;99.90;;;;;;7287246;32;20111;-54
2023/04/01 05:17:01;;;;;;;2.80;1.30;;;9.30;99.90;;;;;;7275948;32;20116;-54
2023/04/01 05:21:03;;;;;;;2.92;1.15;;;9.10;99.90;;;;;;7278384;32;20140;-54
2023/04/01 05:25:05;;;;;;;4.50;1.70;;;9.20;99.90;;;;;;7285453;32;20116;-54
2023/04/01 05:29:07;;;;;;;1.75;1.30;;;9.10;99.90;;;;;;7279690;32;20128;-54
2023/04/01 05:33:10;;;;;;;3.17;1.70;;;9.10;99.90;;;;;;7277355;32;20293;-54
2023/04/01 05:37:12;;;;;;;2.20;1.67;;;9.10;99.90;;;;;;7284434;32;20199;-54
2023/04/01 05:41:14;;;;;;;2.47;1.90;;;9.10;99.90;;;;;;7261099;32;20116;-54
2023/04/01 05:45:16;;;;;;;3.75;2.33;;;9.10;99.90;;;;;;7281029;32;20131;-54
2023/04/01 05:49:18;;;;;;;3.10;2.12;;;9.10;99.90;;;;;;7273267;32;20271;-54
2023/04/01 05:53:20;;;;;;;4.68;2.47;;;9.10;99.90;;;;;;7278644;32;20179;-54
2023/04/01 05:57:21;;;;;;;4.72;2.78;;;9.10;99.90;;;;;;7272439;32;20678;-54
2023/04/01 06:01:23;;;;;;;2.87;2.45;;;9.10;99.90;;;;;;7271566;32;20163;-55
2023/04/01 06:05:29;;;;;;;4.60;2.47;;;9.10;99.90;;;;;;7261119;32;20191;-55
2023/04/01 06:09:31;;;;;;;4.03;2.20;;;9.00;99.90;;;;;;7277543;32;20174;-54
2023/04/01 06:14:05;;;;;;;4.28;2.28;;;9.10;99.90;;;;;;7280359;32;20186;-54
2023/04/01 06:18:44;;;;;;;4.18;2.87;;;9.10;99.90;;;;;;7235860;32;20115;-54
2023/04/01 06:23:07;;;;;;;3.00;2.70;;;9.10;99.90;;;;;;7269821;32;20138;-55
2023/04/01 06:27:43;;;;;;;3.50;2.47;;;9.10;99.90;;;;;;7274193;32;20119;-55
2023/04/01 06:31:49;;;;;;;4.07;3.00;;;9.10;99.90;;;;;;7278801;32;20294;-56
2023/04/01 06:36:17;;;;;;;3.95;2.85;;;9.10;99.90;;;;;;7273253;32;20108;-55
2023/04/01 06:40:22;;;;;;;5.53;3.40;;;9.10;99.90;;;;;;7246245;32;20199;-55
2023/04/01 06:45:00;;;;;;;5.12;2.95;;;9.20;99.90;;;;;;7273787;32;20230;-55
2023/04/01 06:49:06;;;;;;;;;;;9.20;99.90;;;;;;7261706;32;20258;-56
2023/04/01 06:53:34;;;;;;;5.90;3.15;;;9.20;99.90;;;;;;7276048;32;20114;-56
2023/04/01 06:57:44;;;;;;;3.72;3.05;;;9.10;99.90;;;;;;7278116;32;20131;-56
2023/04/01 07:01:51;;;;;;;5.78;3.90;;;9.20;99.90;;;;;;7272032;32;20390;-56
2023/04/01 07:05:56;;;;;;;3.03;2.45;;;9.20;99.90;;;;;;7277397;32;20330;-56
2023/04/01 07:10:00;;;;;;;2.47;2.12;;;9.20;99.90;;;;;;7281109;32;20149;-56
2023/04/01 07:14:06;;;;;;;5.12;2.10;;;9.30;99.90;;;;;;7282486;32;20136;-57
2023/04/01 07:18:21;;;;;;;2.10;1.90;;;9.20;99.90;;;;;;7282672;32;20270;-56
2023/04/01 07:22:43;;;;;;;3.12;1.67;;;9.30;99.90;;;;;;7273198;32;20207;-56
2023/04/01 07:26:45;;;;;;;2.97;1.70;;;9.30;99.90;;;;;;7281126;32;20546;-56
2023/04/01 07:31:18;;;;;;;2.90;1.60;;;9.30;99.90;;;;;;7287853;32;20214;-56
2023/04/01 07:35:27;;;;;;;1.92;1.40;;;9.40;99.90;;;;;;7285892;32;20108;-56
2023/04/01 07:39:38;;;;;;;1.90;1.52;;;9.40;99.90;;;;;;7280747;32;20523;-55
2023/04/01 07:44:07;;;;;;;1.48;1.33;;;9.30;99.90;;;;;;7279691;32;20170;-56
2023/04/01 07:48:12;;;;;;;2.40;1.55;;;9.40;99.90;;;;;;7289877;32;20199;-56
2023/04/01 07:52:47;;;;;;;2.47;1.70;;;9.40;99.90;;;;;;7281720;32;20120;-55
2023/04/01 07:56:49;;;;;;;2.25;1.73;;;9.40;99.90;;;;;;7284379;32;20340;-56
2023/04/01 08:01:18;;;;;;;2.22;1.62;;;9.30;99.90;;;;;;7279795;32;20108;-56
2023/04/01 08:05:50;;;;;;;2.08;1.87;;;9.30;99.90;;;;;;7278090;32;20314;-55
2023/04/01 08:10:10;;;;;;;4.60;2.17;;;9.30;99.90;;;;;;7274204;32;20199;-56
2023/04/01 08:14:35;;;;;;;3.15;2.85;;;9.40;99.90;;;;;;7262758;32;20181;-56
2023/04/01 08:19:09;;;;;;;3.12;2.37;;;9.40;99.90;;;;;;7281706;32;20794;-61
2023/04/01 08:23:10;;;;;;;2.42;2.10;;;9.50;99.90;;;;;;7279960;32;20656;-56
2023/04/01 08:27:34;;;;;;;3.60;2.53;;;9.60;99.90;;;;;;7272660;32;20177;-56
2023/04/01 08:31:48;;;;;;;3.45;2.30;;;9.50;99.90;;;;;;7273557;32;20892;-56
2023/04/01 08:36:15;;;;;;;5.03;2.25;;;9.50;99.90;;;;;;7275064;32;20180;-56
2023/04/01 08:40:54;;;;;;;3.30;2.40;;;9.50;99.90;;;;;;7278165;32;20294;-55
2023/04/01 08:45:30;;;;;;;3.65;2.50;;;9.60;99.90;;;;;;7279247;32;20488;-57
2023/04/01 08:49:51;;;;;;;3.15;2.65;;;9.70;99.90;;;;;;7272959;32;20217;-55
2023/04/01 08:54:03;;;;;;;3.15;2.85;;;9.70;99.90;;;;;;7284123;32;20359;-55
2023/04/01 08:58:24;;;;;;;4.43;4.03;;;9.60;99.90;;;;;;7274207;32;20250;-57
2023/04/01 09:02:50;;;;;;;3.97;3.58;;;9.60;99.90;;;;;;7274810;32;20490;-55
2023/04/01 09:07:14;;;;;;;4.57;3.83;;;9.70;99.90;;;;;;7281784;32;20181;-56
2023/04/01 09:11:29;;;;;;;4.87;4.40;;;9.60;99.90;;;;;;7288196;32;20476;-55
2023/04/01 09:15:59;;;;;;;5.35;4.85;;;9.70;99.90;;;;;;7291734;32;20538;-57
2023/04/01 09:20:38;;;;;;;6.50;5.78;;;9.70;99.90;;;;;;7279698;32;20498;-56
2023/04/01 09:24:58;;;;;;;;;;;9.80;99.90;;;;;;7279955;32;20206;-56
2023/04/01 09:29:43;;;;;;;6.70;6.10;;;9.80;99.90;;;;;;7283773;32;20003;-56
2023/04/01 09:34:22;;;;;;;7.18;6.20;;;9.90;99.90;;;;;;7281217;32;20227;-55
2023/04/01 09:38:57;;;;;;;6.55;5.53;;;9.80;99.90;;;;;;7279583;32;20745;-55
2023/04/01 09:43:18;;;;;;;6.87;6.18;;;9.80;99.90;;;;;;7276574;32;20134;-56
2023/04/01 09:47:47;;;;;;;7.05;6.28;;;9.90;99.90;;;;;;7287521;32;20939;-56
2023/04/01 09:52:25;;;;;;;8.18;7.28;;;9.90;99.90;;;;;;7278536;32;20140;-56
2023/04/01 09:57:10;;;;;;;10.70;7.00;;;10.00;99.90;;;;;;7269016;32;20169;-55
2023/04/01 10:01:47;;;;;;;9.23;7.50;;;10.10;99.90;;;;;;7281545;32;20213;-56
2023/04/01 10:06:01;;;;;;;8.63;7.68;;;10.10;99.90;;;;;;7281958;32;20609;-55
2023/04/01 10:10:34;;;;;;;9.43;7.95;;;10.10;99.90;;;;;;7279309;32;20291;-57
2023/04/01 10:15:10;;;;;;;9.85;8.90;;;10.10;99.90;;;;;;7280282;32;20189;-57
2023/04/01 10:19:17;;;;;;;11.12;9.48;;;10.00;99.90;;;;;;7275802;32;20158;-57
2023/04/01 10:23:31;;;;;;;11.48;9.32;;;10.00;99.90;;;;;;7270567;32;20303;-56
2023/04/01 10:28:10;;;;;;;12.05;9.85;;;10.00;99.90;;;;;;7277555;32;20662;-57
2023/04/01 10:32:29;;;;;;;9.82;8.80;;;10.00;99.90;;;;;;7277577;32;20112;-55
2023/04/01 10:36:41;;;;;;;11.95;9.98;;;9.90;99.90;;;;;;7260471;32;20536;-56
2023/04/01 10:41:10;;;;;;;11.60;8.52;;;10.00;99.90;;;;;;7268297;32;20808;-57
2023/04/01 10:45:17;;;;;;;10.10;7.85;;;10.00;99.90;;;;;;7282448;32;20212;-56
2023/04/01 10:49:37;;;;;;;9.18;7.93;;;10.00;99.90;;;;;;7271136;32;20259;-56
2023/04/01 10:54:17;;;;;;;9.63;7.97;;;9.90;99.90;;;;;;7279288;32;20535;-56
2023/04/01 10:58:55;;;;;;;8.23;7.18;;;9.80;99.90;;;;;;7276606;32;20261;-55
2023/04/01 11:03:26;;;;;;;7.40;6.57;;;9.80;99.90;;;;;;7281330;32;20164;-56
2023/04/01 11:07:28;;;;;;;7.18;6.47;;;9.90;99.90;;;;;;7277490;32;20112;-58
2023/04/01 11:11:35;;;;;;;8.00;7.20;;;9.90;99.90;;;;;;7278454;32;20222;-56
2023/04/01 11:15:56;;;;;;;8.80;7.22;;;10.00;99.90;;;;;;7276387;32;20186;-57
2023/04/01 11:20:08;;;;;;;8.93;8.00;;;9.90;99.90;;;;;;7283247;32;20563;-56
2023/04/01 11:24:30;;;;;;;8.73;7.82;;;9.90;99.90;;;;;;7277764;32;20242;-56
2023/04/01 11:28:59;;;;;;;8.40;7.50;;;10.00;99.90;;;;;;7277660;32;20384;-56
2023/04/01 11:33:28;;;;;;;9.35;8.20;;;10.10;99.90;;;;;;7276126;32;20108;-56
2023/04/01 11:37:43;;;;;;;9.32;8.30;;;10.20;99.90;;;;;;7273554;32;20536;-56
2023/04/01 11:42:14;;;;;;;9.05;7.25;;;10.30;99.90;;;;;;7286468;32;20757;-56
2023/04/01 11:46:35;;;;;;;9.40;7.72;;;10.40;99.90;;;;;;7243436;32;20253;-57
2023/04/01 11:51:13;;;;;;;6.93;6.22;;;10.20;99.90;;;;;;7277229;32;20145;-56
2023/04/01 11:55:41;;;;;;;8.95;7.40;;;10.10;99.90;;;;;;7272722;32;20443;-61
2023/04/01 12:00:24;;;;;;;7.45;6.65;;;10.20;99.90;;;;;;7273880;32;20539;-60
2023/04/01 12:04:54;;;;;;;7.78;6.90;;;10.30;99.90;;;;;;7275885;32;20452;-56
2023/04/01 12:09:37;;;;;;;8.60;7.15;;;10.20;99.90;;;;;;7281349;32;20204;-56
2023/04/01 12:13:45;;;;;;;7.55;6.85;;;10.20;99.90;;;;;;7277175;32;20104;-55
2023/04/01 12:18:04;;;;;;;8.27;7.28;;;10.20;99.90;;;;;;7273994;32;20644;-56
2023/04/01 12:22:20;;;;;;;9.10;7.22;;;10.20;99.90;;;;;;7264625;32;20271;-56
2023/04/01 12:26:35;;;;;;;9.17;8.13;;;10.10;99.90;;;;;;7275557;32;20104;-56
2023/04/01 12:30:57;;;;;;;9.77;8.10;;;10.10;99.90;;;;;;7276539;32;20214;-57
2023/04/01 12:35:11;;;;;;;10.05;8.90;;;10.10;99.90;;;;;;7275527;32;20178;-56
2023/04/01 12:39:25;;;;;;;10.13;9.13;;;10.10;99.90;;;;;;7275296;32;20223;-57
2023/04/01 12:43:48;;;;;;;11.15;8.82;;;10.10;99.90;;;;;;7287201;32;20171;-57
2023/04/01 12:47:58;;;;;;;10.75;9.65;;;10.10;99.90;;;;;;7275579;32;20221;-58
2023/04/01 12:52:11;;;;;;;10.75;8.57;;;10.10;99.90;;;;;;7274775;32;20240;-56
2023/04/01 12:56:37;;;;;;;10.82;8.82;;;10.10;99.90;;;;;;7273590;32;20185;-57
2023/04/01 13:00:57;;;;;;;10.25;8.75;;;10.10;99.90;;;;;;7233137;32;20158;-55
2023/04/01 13:05:37;;;;;;;9.63;8.27;;;10.00;99.90;;;;;;7276936;32;20112;-56
2023/04/01 13:10:02;;;;;;;10.15;8.90;;;10.00;99.90;;;;;;7277238;32;20245;-57
2023/04/01 13:14:10;;;;;;;9.40;8.45;;;10.20;99.90;;;;;;7276532;32;20542;-58
2023/04/01 13:18:38;;;;;;;11.25;8.23;;;10.30;99.90;;;;;;7277663;32;20136;-57
2023/04/01 13:22:54;;;;;;;9.43;8.40;;;10.40;99.90;;;;;;7277355;32;20767;-56
2023/04/01 13:27:11;;;;;;;8.00;7.00;;;10.30;99.90;;;;;;7274806;32;20805;-57
2023/04/01 13:31:41;;;;;;;7.23;5.97;;;10.40;99.90;;;;;;7274457;32;20130;-57
2023/04/01 13:36:03;;;;;;;7.37;6.68;;;10.30;99.90;;;;;;7279674;32;20177;-58
2023/04/01 13:40:39;;;;;;;6.50;5.65;;;10.40;99.90;;;;;;7276626;32;20834;-59
2023/04/01 13:44:50;;;;;;;8.23;5.70;;;10.30;99.90;;;;;;7260055;32;20511;-58
2023/04/01 13:49:17;;;;;;;8.20;5.63;;;10.30;99.90;;;;;;7277069;32;20245;-59
2023/04/01 13:53:59;;;;;;;10.57;7.12;;;10.30;99.90;;;;;;7275112;32;20598;-57
2023/04/01 13:58:43;;;;;;;7.53;6.43;;;10.30;99.90;;;;;;7271411;32;20191;-57
2023/04/01 14:03:17;;;;;;;9.30;6.15;;;10.30;99.90;;;;;;7277661;32;20167;-56
2023/04/01 14:07:34;;;;;;;6.85;5.80;;;10.20;99.90;;;;;;7272998;32;20151;-56
2023/04/01 14:11:58;;;;;;;6.33;5.70;;;10.30;99.90;;;;;;7273969;32;20112;-56
2023/04/01 14:16:38;;;;;;;6.50;5.80;;;10.30;99.90;;;;;;7269205;32;20888;-56
2023/04/01 14:20:51;;;;;;;6.07;5.32;;;10.30;99.90;;;;;;7278778;32;20157;-56
2023/04/01 14:25:05;;;;;;;6.40;5.43;;;10.20;99.90;;;;;;7277089;32;20159;-57
2023/04/01 14:29:30;;;;;;;6.70;5.03;;;10.30;99.90;;;;;;7280241;32;20531;-57
2023/04/01 14:33:51;;;;;;;6.10;5.43;;;10.10;99.90;;;;;;7264501;32;20123;-57
2023/04/01 14:38:02;;;;;;;6.10;5.37;;;10.20;99.90;;;;;;7281945;32;20165;-57
2023/04/01 14:42:27;;;;;;;8.50;6.03;;;10.20;99.90;;;;;;7285163;32;20251;-57
2023/04/01 14:47:07;;;;;;;6.70;5.82;;;10.30;99.90;;;;;;7279826;32;20337;-57
2023/04/01 14:51:17;;;;;;;6.05;5.45;;;10.30;99.90;;;;;;7283551;32;20132;-57
2023/04/01 14:55:38;;;;;;;6.03;5.25;;;10.30;99.90;;;;;;7275580;32;20643;-57
2023/04/01 14:59:50;;;;;;;6.25;5.65;;;10.30;99.90;;;;;;7275027;32;20637;-56
2023/04/01 15:04:13;;;;;;;5.47;4.97;;;10.20;99.90;;;;;;7276576;32;20963;-56
2023/04/01 15:08:26;;;;;;;5.55;4.30;;;10.20;99.90;;;;;;7281265;32;20187;-56
2023/04/01 15:12:47;;;;;;;4.50;3.85;;;10.20;99.90;;;;;;7282988;32;20092;-57
2023/04/01 15:16:52;;;;;;;4.82;4.03;;;10.20;99.90;;;;;;7279925;32;20175;-57
2023/04/01 15:21:24;;;;;;;4.85;4.25;;;10.30;99.90;;;;;;7280152;32;20120;-55
2023/04/01 15:25:51;;;;;;;4.50;4.10;;;10.30;99.90;;;;;;7264660;32;20104;-57
2023/04/01 15:30:04;;;;;;;4.65;3.67;;;10.20;99.90;;;;;;7261629;32;20183;-56
2023/04/01 15:34:20;;;;;;;3.80;3.50;;;10.20;99.90;;;;;;7284016;32;20104;-56
2023/04/01 15:38:45;;;;;;;4.95;4.10;;;10.20;99.90;;;;;;7283211;32;20283;-57
2023/04/01 15:43:05;;;;;;;4.28;3.87;;;10.10;99.90;;;;;;7273819;32;20123;-56
2023/04/01 15:47:26;;;;;;;5.18;3.80;;;10.10;99.90;;;;;;7282938;32;20203;-56
2023/04/01 15:51:36;;;;;;;4.85;3.67;;;10.10;99.90;;;;;;7276644;32;20165;-55
2023/04/01 15:56:06;;;;;;;4.12;3.50;;;10.10;99.90;;;;;;7277083;32;20131;-56
2023/04/01 16:00:46;;;;;;;4.20;3.00;;;10.00;99.90;;;;;;7278882;32;20115;-56
2023/04/01 16:05:07;;;;;;;4.07;3.12;;;9.90;99.90;;;;;;7276481;32;20119;-56
2023/04/01 16:09:14;;;;;;;4.50;3.40;;;10.00;99.90;;;;;;7277784;32;20185;-56
2023/04/01 16:13:42;;;;;;;4.43;4.03;;;9.90;99.90;;;;;;7276687;32;20268;-57
2023/04/01 16:18:12;;;;;;;4.60;3.80;;;10.00;99.90;;;;;;7278655;32;20167;-55
2023/04/01 16:22:29;;;;;;;4.68;3.35;;;9.90;99.90;;;;;;7263379;32;20157;-56
2023/04/01 16:26:55;;;;;;;3.28;2.80;;;9.90;99.90;;;;;;7279505;32;20194;-56
2023/04/01 16:31:32;;;;;;;3.47;3.17;;;9.90;99.90;;;;;;7276769;32;20592;-56
2023/04/01 16:36:05;;;;;;;3.80;2.87;;;9.90;99.90;;;;;;7272522;32;20115;-56
2023/04/01 16:40:34;;;;;;;3.55;2.45;;;9.80;99.90;;;;;;7278427;32;20171;-56
2023/04/01 16:45:02;;;;;;;3.65;2.75;;;9.80;99.90;;;;;;7276381;32;20525;-57
2023/04/01 16:49:22;;;;;;;4.65;2.67;;;9.80;99.90;;;;;;7262277;32;20108;-55
2023/04/01 16:54:06;;;;;;;3.55;2.80;;;9.80;99.90;;;;;;7270853;32;20155;-55
2023/04/01 16:58:11;;;;;;;4.47;3.08;;;9.80;99.90;;;;;;7250784;32;20126;-56
2023/04/01 17:02:19;;;;;;;3.83;3.40;;;9.80;99.90;;;;;;7271880;32;20183;-55
2023/04/01 17:06:53;;;;;;;3.47;3.08;;;9.90;99.90;;;;;;7283952;32;20648;-56
2023/04/01 17:11:20;;;;;;;2.83;2.53;;;9.90;99.90;;;;;;7277391;32;20099;-55
2023/04/01 17:15:41;;;;;;;4.10;3.17;;;9.80;99.90;;;;;;7282699;32;21943;-55
2023/04/01 17:20:05;;;;;;;5.55;3.45;;;9.80;99.90;;;;;;7279142;32;20128;-56
2023/04/01 17:24:29;;;;;;;5.28;4.53;;;9.80;99.90;;;;;;7282381;32;20100;-55
2023/04/01 17:28:45;;;;;;;5.75;4.87;;;9.80;99.90;;;;;;7277811;32;20123;-56
2023/04/01 17:33:18;;;;;;;5.60;5.10;;;9.80;99.90;;;;;;7271857;32;20261;-55
2023/04/01 17:37:31;;;;;;;5.47;4.97;;;9.90;99.90;;;;;;7273135;32;20122;-56
2023/04/01 17:41:41;;;;;;;6.40;5.70;;;9.80;99.90;;;;;;7272541;32;20172;-55
2023/04/01 17:45:57;;;;;;;6.60;5.93;;;9.80;99.90;;;;;;7276105;32;20165;-59
2023/04/01 17:50:10;;;;;;;6.87;6.07;;;9.90;99.90;;;;;;7277293;32;20237;-55
2023/04/01 17:54:11;;;;;;;6.57;5.95;;;10.00;99.90;;;;;;7278961;32;20665;-55
2023/04/01 17:58:35;;;;;;;7.90;6.55;;;9.90;99.90;;;;;;7278805;32;20187;-56
2023/04/01 18:02:56;;;;;;;6.00;5.37;;;9.80;99.90;;;;;;7276741;32;20206;-56
2023/04/01 18:07:20;;;;;;;6.62;5.93;;;9.80;99.90;;;;;;7269440;32;20230;-56
2023/04/01 18:11:39;;;;;;;6.90;6.05;;;9.80;99.90;;;;;;7248260;32;20111;-56
2023/04/01 18:16:02;;;;;;;7.10;5.60;;;9.80;99.90;;;;;;7263757;32;20229;-56
2023/04/01 18:20:36;;;;;;;7.30;6.40;;;9.70;99.90;;;;;;7264493;32;20296;-55
2023/04/01 18:24:59;;;;;;;7.75;6.03;;;9.70;99.90;;;;;;7258274;32;20214;-55
2023/04/01 18:29:32;;;;;;;7.62;6.40;;;9.70;99.90;;;;;;7266895;32;20248;-54
2023/04/01 18:33:42;;;;;;;6.43;5.82;;;9.70;99.90;;;;;;7264860;32;20128;-55
2023/04/01 18:38:02;;;;;;;7.95;6.68;;;9.70;99.90;;;;;;7266578;32;20298;-55
2023/04/01 18:42:33;;;;;;;6.82;6.12;;;9.60;99.90;;;;;;7270489;32;20662;-55
2023/04/01 18:47:17;;;;;;;7.22;6.03;;;9.70;99.90;;;;;;7271315;32;20273;-55
2023/04/01 18:51:37;;;;;;;11.02;8.23;;;9.70;99.90;;;;;;7251610;32;20199;-54
2023/04/01 18:55:47;;;;;;;10.50;7.07;;;9.60;99.90;;;;;;7267007;32;20191;-54
2023/04/01 18:59:56;;;;;;;7.18;6.47;;;9.60;99.90;;;;;;7271015;32;20134;-55
2023/04/01 19:04:04;;;;;;;9.00;7.32;;;9.60;99.90;;;;;;7271006;32;20267;-54
2023/04/01 19:08:39;;;;;;;7.47;6.70;;;9.60;99.90;;;;;;7274187;32;20127;-55
2023/04/01 19:12:56;;;;;;;9.57;7.18;;;9.60;99.90;;;;;;7274622;32;20222;-54
2023/04/01 19:17:26;;;;;;;7.25;6.18;;;9.60;99.90;;;;;;7275956;32;20100;-56
2023/04/01 19:21:37;;;;;;;8.25;6.70;;;9.50;99.90;;;;;;7277756;32;20467;-57
2023/04/01 19:25:48;;;;;;;7.72;6.12;;;9.50;99.90;;;;;;7284298;32;20501;-54
2023/04/01 19:30:02;;;;;;;7.22;5.68;;;9.50;99.90;;;;;;7261404;32;20755;-54
2023/04/01 19:34:26;;;;;;;7.25;5.93;;;9.50;99.90;;;;;;7279063;32;20189;-54
2023/04/01 19:38:40;;;;;;;9.30;6.93;;;9.50;99.90;;;;;;7268710;32;20298;-54
2023/04/01 19:42:55;;;;;;;7.93;6.35;;;9.40;99.90;;;;;;7281010;32;20240;-55
2023/04/01 19:47:08;;;;;;;11.80;8.93;;;9.40;99.90;;;;;;7275150;32;20099;-55
2023/04/01 19:51:35;;;;;;;8.27;6.65;;;9.40;99.90;;;;;;7278136;32;20761;-55
2023/04/01 19:56:02;;;;;;;8.50;6.97;;;9.40;99.90;;;;;;7278203;32;20495;-55
2023/04/01 20:00:07;;;;;;;;;;;9.40;99.90;;;;;;7267635;32;20175;-55
2023/04/01 20:04:31;;;;;;;7.57;6.78;;;9.40;99.90;;;;;;7277262;32;20069;-55
2023/04/01 20:09:04;;;;;;;10.30;8.52;;;9.40;99.90;;;;;;7258180;32;20171;-55
2023/04/01 20:13:38;;;;;;;9.70;8.32;;;9.40;99.90;;;;;;7275500;32;20477;-56
2023/04/01 20:17:48;;;;;;;9.27;8.38;;;9.40;99.90;;;;;;7275433;32;20571;-55
2023/04/01 20:21:51;;;;;;;9.68;8.60;;;9.30;99.90;;;;;;7278778;32;20579;-55
2023/04/01 20:26:07;;;;;;;7.82;7.10;;;9.30;99.90;;;;;;7276175;32;20214;-55
2023/04/01 20:30:38;;;;;;;5.03;4.25;;;9.30;99.90;;;;;;7275449;32;20144;-55
2023/04/01 20:34:51;;;;;;;4.18;3.70;;;9.20;99.90;;;;;;7276912;32;20155;-54
2023/04/01 20:39:20;;;;;;;3.50;3.17;;;9.20;99.90;;;;;;7281124;32;20107;-54
2023/04/01 20:43:28;;;;;;;4.28;2.78;;;9.20;99.90;;;;;;7283547;32;20688;-54
2023/04/01 20:48:11;;;;;;;4.40;4.00;;;9.20;99.90;;;;;;7282825;32;20564;-54
2023/04/01 20:52:13;;;;;;;4.43;4.03;;;9.10;99.90;;;;;;7273871;32;20161;-54
2023/04/01 20:56:50;;;;;;;5.53;4.43;;;9.10;99.90;;;;;;7268022;32;20157;-55
2023/04/01 21:00:58;;;;;;;4.12;3.72;;;9.00;99.90;;;;;;7248944;32;20593;-55
2023/04/01 21:05:22;;;;;;;4.55;3.78;;;9.10;99.90;;;;;;7280232;32;20112;-55
2023/04/01 21:09:43;;;;;;;4.87;4.47;;;9.10;99.90;;;;;;7276239;32;20191;-55
2023/04/01 21:13:54;;;;;;;11.90;4.65;;;9.00;99.90;;;;;;7281898;32;20135;-55
2023/04/01 21:18:27;;;;;;;4.12;3.47;;;9.00;99.90;;;;;;7262355;32;20175;-55
2023/04/01 21:23:01;;;;;;;3.62;3.15;;;9.00;99.90;;;;;;7277238;32;20533;-55
2023/04/01 21:27:10;;;;;;;3.50;3.20;;;8.80;99.90;;;;;;7239842;32;20134;-54
2023/04/01 21:31:37;;;;;;;3.45;2.90;;;8.70;99.90;;;;;;7272926;32;20289;-54
2023/04/01 21:36:03;;;;;;;3.12;2.85;;;8.60;99.90;;;;;;7282890;32;20149;-54
2023/04/01 21:40:37;;;;;;;3.10;2.78;;;8.60;99.90;;;;;;7264102;32;20120;-54
2023/04/01 21:45:00;;;;;;;2.72;2.47;;;8.50;99.90;;;;;;7277435;32;20687;-54
2023/04/01 21:49:04;;;;;;;2.70;2.50;;;8.40;99.90;;;;;;7270140;32;20616;-54
2023/04/01 21:53:21;;;;;;;3.00;2.70;;;8.40;99.90;;;;;;7260445;32;20233;-54
2023/04/01 21:57:42;;;;;;;2.95;2.65;;;8.30;99.90;;;;;;7271240;32;20147;-53
2023/04/01 22:01:52;;;;;;;3.30;2.60;;;8.30;99.90;;;;;;7274610;32;20252;-54
2023/04/01 22:06:10;;;;;;;5.57;4.00;;;8.20;99.90;;;;;;7273882;32;20517;-54
2023/04/01 22:10:46;;;;;;;5.50;4.80;;;8.20;99.90;;;;;;7270299;32;20223;-54
2023/04/01 22:14:52;;;;;;;6.30;5.70;;;8.20;99.90;;;;;;7264943;32;20214;-55
2023/04/01 22:19:03;;;;;;;5.75;5.25;;;8.10;99.90;;;;;;7265728;32;20286;-54
2023/04/01 22:23:35;;;;;;;6.18;5.57;;;7.90;99.90;;;;;;7273546;32;20162;-54
2023/04/01 22:27:48;;;;;;;5.50;5.00;;;7.90;99.90;;;;;;7279996;32;20103;-54
2023/04/01 22:31:53;;;;;;;5.70;5.20;;;7.90;99.90;;;;;;7278787;32;20395;-54